Time;durP1;ratioP1;P1;durP2;ratioP2;P2;SDS_P1;SDS_P2;PMS_P1;PMS_P2;Temp;Humidity;BMP_temperature;BMP_pressure;BME280_temperature;BME280_humidity;BME280_pressure;Samples;Min_cycle;Max_cycle;Signal;HPM_P1;HPM_P2
2022/11/23 00:01:32;;;;;;;6.82;2.40;;;4.30;99.90;;;;;;5015448;28;20037;-68
2022/11/23 00:04:01;;;;;;;34.28;10.52;;;4.30;99.90;;;;;;5015393;28;20061;-68
2022/11/23 00:06:27;;;;;;;12.00;4.47;;;4.20;99.90;;;;;;5015559;28;20413;-68
2022/11/23 00:08:53;;;;;;;12.85;4.72;;;4.20;99.90;;;;;;5015311;28;20045;-68
2022/11/23 00:11:22;;;;;;;9.15;3.80;;;4.20;99.90;;;;;;5015254;28;20034;-68
2022/11/23 00:13:48;;;;;;;9.15;2.85;;;4.10;99.90;;;;;;5015321;28;20049;-68
2022/11/23 00:16:26;;;;;;;3.55;1.77;;;4.30;99.90;;;;;;5015226;28;20034;-68
2022/11/23 00:19:02;;;;;;;5.47;1.77;;;4.20;99.90;;;;;;5015321;28;20046;-68
2022/11/23 00:21:30;;;;;;;4.53;1.67;;;4.30;99.90;;;;;;5015304;28;20038;-68
2022/11/23 00:23:56;;;;;;;4.80;1.77;;;4.40;99.90;;;;;;5015191;28;20046;-68
2022/11/23 00:26:22;;;;;;;6.07;1.60;;;4.50;99.90;;;;;;5015224;28;20521;-68
2022/11/23 00:28:48;;;;;;;4.88;1.42;;;4.60;99.90;;;;;;5017012;28;20096;-68
2022/11/23 00:31:17;;;;;;;3.50;1.50;;;4.50;99.90;;;;;;5014711;28;20056;-68
2022/11/23 00:33:48;;;;;;;4.38;2.10;;;4.60;99.90;;;;;;5014801;28;20507;-68
2022/11/23 00:36:15;;;;;;;7.03;1.38;;;4.60;99.90;;;;;;5014982;28;20046;-68
2022/11/23 00:38:42;;;;;;;5.53;1.30;;;4.70;99.90;;;;;;5014817;28;20037;-68
2022/11/23 00:41:16;;;;;;;4.65;1.33;;;4.80;99.90;;;;;;5014793;28;20072;-68
2022/11/23 00:43:43;;;;;;;5.03;1.45;;;4.80;99.90;;;;;;5014809;28;20041;-68
2022/11/23 00:46:14;;;;;;;2.67;1.20;;;4.90;99.90;;;;;;5014864;28;20041;-68
2022/11/23 00:48:44;;;;;;;2.22;1.25;;;4.80;99.90;;;;;;5013938;28;20490;-67
2022/11/23 00:51:13;;;;;;;9.60;2.80;;;4.80;99.90;;;;;;5014585;28;20049;-68
2022/11/23 00:53:38;;;;;;;7.93;2.47;;;4.80;99.90;;;;;;5014439;28;20411;-68
2022/11/23 00:56:04;;;;;;;10.25;4.07;;;4.70;99.90;;;;;;5014314;28;20040;-68
2022/11/23 00:58:30;;;;;;;8.70;3.72;;;4.70;99.90;;;;;;5014397;28;20092;-68
2022/11/23 01:01:06;;;;;;;8.70;2.63;;;4.60;99.90;;;;;;5014459;28;20042;-67
2022/11/23 01:03:32;;;;;;;11.93;3.45;;;4.60;99.90;;;;;;5014380;28;20037;-68
2022/11/23 01:06:11;;;;;;;12.43;2.92;;;4.70;99.90;;;;;;5014234;28;20048;-68
2022/11/23 01:08:38;;;;;;;5.85;1.63;;;4.70;99.90;;;;;;5013908;28;20056;-68
2022/11/23 01:11:09;;;;;;;8.18;2.05;;;4.70;99.90;;;;;;5014050;28;20045;-68
2022/11/23 01:13:36;;;;;;;6.45;1.77;;;4.70;99.90;;;;;;5014195;28;20041;-67
2022/11/23 01:16:02;;;;;;;4.32;1.42;;;4.80;99.90;;;;;;5014405;28;20042;-68
2022/11/23 01:18:28;;;;;;;3.78;1.50;;;4.80;99.90;;;;;;5014314;28;20038;-68
2022/11/23 01:20:54;;;;;;;5.53;1.60;;;4.90;99.90;;;;;;5014099;28;20049;-68
2022/11/23 01:23:20;;;;;;;6.18;1.50;;;4.90;99.90;;;;;;5014552;28;20141;-68
2022/11/23 01:25:46;;;;;;;4.90;1.27;;;5.00;99.90;;;;;;5014299;28;20054;-68
2022/11/23 01:28:12;;;;;;;6.03;1.55;;;5.00;99.90;;;;;;5014177;28;20099;-68
2022/11/23 01:30:38;;;;;;;5.15;1.30;;;4.90;99.90;;;;;;5014011;28;20467;-68
2022/11/23 01:33:04;;;;;;;4.85;1.40;;;4.80;99.90;;;;;;5014038;28;20034;-68
2022/11/23 01:35:30;;;;;;;3.25;1.08;;;4.80;99.90;;;;;;5014074;28;20053;-68
2022/11/23 01:37:55;;;;;;;3.95;1.48;;;4.80;99.90;;;;;;5014173;28;20042;-68
2022/11/23 01:40:22;;;;;;;4.30;1.20;;;4.80;99.90;;;;;;5013774;28;20041;-68
2022/11/23 01:42:59;;;;;;;3.83;1.50;;;4.80;99.90;;;;;;5013199;28;20030;-68
2022/11/23 01:45:39;;;;;;;3.25;1.40;;;4.80;99.90;;;;;;5012079;28;20045;-68
2022/11/23 01:48:15;;;;;;;4.45;1.20;;;4.80;99.90;;;;;;5011812;28;20119;-68
2022/11/23 01:50:42;;;;;;;4.35;1.80;;;4.90;99.90;;;;;;5027394;28;20049;-68
2022/11/23 01:53:08;;;;;;;6.60;2.42;;;4.80;99.90;;;;;;5031240;28;20045;-68
2022/11/23 01:55:34;;;;;;;8.50;2.58;;;4.80;99.90;;;;;;5032546;28;20041;-67
2022/11/23 01:58:01;;;;;;;9.40;2.58;;;4.60;99.90;;;;;;5033445;28;20485;-68
2022/11/23 02:00:27;;;;;;;8.48;2.70;;;4.40;99.90;;;;;;5035520;28;20037;-68
2022/11/23 02:02:56;;;;;;;7.70;2.53;;;4.30;99.90;;;;;;5037416;28;20040;-68
2022/11/23 02:05:28;;;;;;;6.75;1.77;;;4.30;99.90;;;;;;5037609;28;20044;-67
2022/11/23 02:07:55;;;;;;;4.30;1.95;;;4.30;99.90;;;;;;5037428;28;20053;-68
2022/11/23 02:10:22;;;;;;;6.70;2.28;;;4.30;99.90;;;;;;5037708;28;20492;-68
2022/11/23 02:12:47;;;;;;;3.33;1.70;;;4.40;99.90;;;;;;5037348;28;20044;-67
2022/11/23 02:15:13;;;;;;;4.22;1.65;;;4.50;99.90;;;;;;5037475;28;20038;-68
2022/11/23 02:17:39;;;;;;;3.03;1.42;;;4.50;99.90;;;;;;5037299;28;20401;-68
2022/11/23 02:20:11;;;;;;;4.13;1.27;;;4.50;99.90;;;;;;5037351;28;20127;-68
2022/11/23 02:23:02;;;;;;;4.78;1.35;;;4.40;99.90;;;;;;5037414;28;20052;-68
2022/11/23 02:25:39;;;;;;;3.78;1.48;;;4.40;99.90;;;;;;5015951;28;20037;-68
2022/11/23 02:28:06;;;;;;;7.63;1.63;;;4.50;99.90;;;;;;5028768;28;20037;-68
2022/11/23 02:30:35;;;;;;;5.35;2.05;;;4.50;99.90;;;;;;5017320;28;20520;-68
2022/11/23 02:33:04;;;;;;;5.63;1.58;;;4.50;99.90;;;;;;5017371;28;20060;-68
2022/11/23 02:35:34;;;;;;;5.45;2.08;;;4.60;99.90;;;;;;5017321;28;20042;-67
2022/11/23 02:38:03;;;;;;;7.65;1.98;;;4.60;99.90;;;;;;5017192;28;20045;-68
2022/11/23 02:40:35;;;;;;;5.75;1.80;;;4.70;99.90;;;;;;5017367;28;20053;-68
2022/11/23 02:43:01;;;;;;;3.53;1.40;;;4.50;99.90;;;;;;5017169;28;20088;-68
2022/11/23 02:45:50;;;;;;;5.93;1.58;;;4.50;99.90;;;;;;5017185;28;20072;-68
2022/11/23 02:48:16;;;;;;;4.30;1.45;;;4.40;99.90;;;;;;5016770;28;20497;-68
2022/11/23 02:50:42;;;;;;;5.78;1.80;;;4.50;99.90;;;;;;5017173;28;20099;-67
2022/11/23 02:53:08;;;;;;;5.30;2.25;;;4.30;99.90;;;;;;5016922;28;20045;-68
2022/11/23 02:55:34;;;;;;;4.43;2.10;;;4.10;99.90;;;;;;5016911;28;20436;-68
2022/11/23 02:58:00;;;;;;;6.72;1.88;;;4.10;99.90;;;;;;5016971;28;20100;-68
2022/11/23 03:00:26;;;;;;;6.85;2.08;;;4.40;99.90;;;;;;5016666;28;20088;-68
2022/11/23 03:02:52;;;;;;;3.15;1.27;;;4.30;99.90;;;;;;5018865;28;20049;-67
2022/11/23 03:05:17;;;;;;;3.83;1.20;;;4.20;99.90;;;;;;5016725;28;20527;-68
2022/11/23 03:07:43;;;;;;;4.03;1.35;;;4.30;99.90;;;;;;5016653;28;20041;-68
2022/11/23 03:10:09;;;;;;;3.25;1.70;;;4.30;99.90;;;;;;5052925;28;20128;-67
2022/11/23 03:12:35;;;;;;;3.38;1.60;;;4.30;99.90;;;;;;5055547;28;20033;-68
2022/11/23 03:15:00;;;;;;;3.67;1.45;;;4.10;99.90;;;;;;5056143;28;20053;-68
2022/11/23 03:17:27;;;;;;;5.78;2.50;;;4.10;99.90;;;;;;5055985;28;20033;-68
2022/11/23 03:19:53;;;;;;;6.95;3.05;;;3.90;99.90;;;;;;5056091;28;20033;-68
2022/11/23 03:22:18;;;;;;;8.05;3.22;;;3.70;99.90;;;;;;5056148;28;20048;-68
2022/11/23 03:24:44;;;;;;;8.43;2.45;;;3.70;99.90;;;;;;5055861;28;20155;-68
2022/11/23 03:27:10;;;;;;;4.80;2.45;;;3.60;99.90;;;;;;5055752;28;20037;-67
2022/11/23 03:29:36;;;;;;;7.93;3.80;;;3.60;99.90;;;;;;5055862;28;20064;-67
2022/11/23 03:32:02;;;;;;;12.27;5.90;;;3.60;99.90;;;;;;5055871;28;20037;-68
2022/11/23 03:34:27;;;;;;;12.63;4.32;;;3.60;99.90;;;;;;5055702;28;20132;-68
2022/11/23 03:36:53;;;;;;;8.35;3.92;;;3.70;99.90;;;;;;5055518;28;20095;-68
2022/11/23 03:39:19;;;;;;;9.25;3.60;;;3.70;99.90;;;;;;5055795;28;20033;-67
2022/11/23 03:41:45;;;;;;;9.70;4.15;;;3.70;99.90;;;;;;5055897;28;20037;-67
2022/11/23 03:44:10;;;;;;;9.65;3.47;;;3.70;99.90;;;;;;5055675;28;20040;-68
2022/11/23 03:46:36;;;;;;;8.75;3.28;;;3.50;99.90;;;;;;5052801;28;20041;-68
2022/11/23 03:49:02;;;;;;;7.60;3.53;;;3.50;99.90;;;;;;5052942;28;20095;-68
2022/11/23 03:51:28;;;;;;;9.13;3.95;;;3.60;99.90;;;;;;5055453;28;20040;-67
2022/11/23 03:53:54;;;;;;;7.53;3.33;;;3.70;99.90;;;;;;5055411;28;20053;-68
2022/11/23 03:56:19;;;;;;;7.60;3.67;;;3.70;99.90;;;;;;5055392;28;20047;-67
2022/11/23 03:58:45;;;;;;;7.70;3.90;;;3.70;99.90;;;;;;5055282;28;20048;-68
2022/11/23 04:01:11;;;;;;;9.07;3.00;;;3.80;99.90;;;;;;5055555;28;20036;-67
2022/11/23 04:03:37;;;;;;;6.72;3.03;;;3.80;99.90;;;;;;5055132;28;20428;-68
2022/11/23 04:06:02;;;;;;;7.75;2.25;;;3.60;99.90;;;;;;5055164;28;20056;-68
2022/11/23 04:08:28;;;;;;;7.70;2.58;;;3.50;99.90;;;;;;5055062;28;20049;-68
2022/11/23 04:10:58;;;;;;;5.85;2.20;;;3.60;99.90;;;;;;5055313;28;20036;-68
2022/11/23 04:13:25;;;;;;;3.78;2.08;;;3.70;99.90;;;;;;5055255;28;20094;-68
2022/11/23 04:15:50;;;;;;;9.55;2.42;;;3.80;99.90;;;;;;5055063;28;20057;-68
2022/11/23 04:18:16;;;;;;;5.32;2.58;;;3.90;99.90;;;;;;5054976;28;20066;-67
2022/11/23 04:20:42;;;;;;;6.10;2.90;;;3.80;99.90;;;;;;5054852;28;20471;-67
2022/11/23 04:23:07;;;;;;;6.00;2.47;;;3.80;99.90;;;;;;5054799;28;20051;-68
2022/11/23 04:25:33;;;;;;;5.90;2.90;;;3.70;99.90;;;;;;5054992;28;20124;-68
2022/11/23 04:27:59;;;;;;;6.57;2.53;;;3.70;99.90;;;;;;5054883;28;20570;-67
2022/11/23 04:30:25;;;;;;;5.53;2.58;;;3.70;99.90;;;;;;5054478;28;20131;-67
2022/11/23 04:32:51;;;;;;;5.53;2.30;;;3.70;99.90;;;;;;5054491;28;20482;-67
2022/11/23 04:35:16;;;;;;;6.22;2.47;;;3.50;99.90;;;;;;5054747;28;20043;-68
2022/11/23 04:37:42;;;;;;;5.47;2.92;;;3.40;99.90;;;;;;5054775;28;20043;-68
2022/11/23 04:40:08;;;;;;;5.57;2.65;;;3.40;99.90;;;;;;5054609;28;20044;-68
2022/11/23 04:42:34;;;;;;;6.45;3.05;;;3.40;99.90;;;;;;5054846;28;20048;-68
2022/11/23 04:45:00;;;;;;;6.47;2.42;;;3.40;99.90;;;;;;5054259;28;20515;-67
2022/11/23 04:47:26;;;;;;;5.60;2.20;;;3.50;99.90;;;;;;5054123;28;20049;-68
2022/11/23 04:49:52;;;;;;;5.50;2.35;;;3.60;99.90;;;;;;5054203;28;20049;-68
2022/11/23 04:52:17;;;;;;;4.78;2.30;;;3.80;99.90;;;;;;5054137;28;20062;-68
2022/11/23 04:54:43;;;;;;;6.00;2.63;;;3.70;99.90;;;;;;5052313;28;20044;-68
2022/11/23 04:57:09;;;;;;;8.32;3.08;;;3.60;99.90;;;;;;5032197;28;20104;-68
2022/11/23 04:59:35;;;;;;;6.07;2.92;;;3.50;99.90;;;;;;5034113;28;20044;-67
2022/11/23 05:02:00;;;;;;;4.47;2.22;;;3.50;99.90;;;;;;5033967;28;20037;-68
2022/11/23 05:04:26;;;;;;;8.82;3.10;;;3.50;99.90;;;;;;5034194;28;20443;-68
2022/11/23 05:06:52;;;;;;;7.32;2.15;;;3.60;99.90;;;;;;5034151;28;20033;-67
2022/11/23 05:09:18;;;;;;;7.05;2.10;;;3.70;99.90;;;;;;5034106;28;20056;-68
2022/11/23 05:11:44;;;;;;;6.40;2.35;;;3.80;99.90;;;;;;5034197;28;20037;-67
2022/11/23 05:14:10;;;;;;;9.90;1.75;;;3.80;99.90;;;;;;5034228;28;20037;-67
2022/11/23 05:16:35;;;;;;;4.32;1.67;;;3.90;99.90;;;;;;5034243;28;20038;-67
2022/11/23 05:19:01;;;;;;;3.35;1.75;;;4.00;99.90;;;;;;5034140;28;20045;-68
2022/11/23 05:21:27;;;;;;;6.85;2.70;;;4.10;99.90;;;;;;5033917;28;20563;-68
2022/11/23 05:23:53;;;;;;;6.10;1.73;;;4.20;99.90;;;;;;5032741;28;20045;-68
2022/11/23 05:26:19;;;;;;;3.30;1.77;;;4.30;99.90;;;;;;5032591;28;20045;-68
2022/11/23 05:28:44;;;;;;;7.18;2.03;;;4.20;99.90;;;;;;5033799;28;20548;-68
2022/11/23 05:31:10;;;;;;;4.65;1.75;;;4.10;99.90;;;;;;5034092;28;20037;-68
2022/11/23 05:33:36;;;;;;;3.22;1.70;;;3.90;99.90;;;;;;5032987;28;20099;-68
2022/11/23 05:36:02;;;;;;;4.18;1.70;;;3.80;99.90;;;;;;5036459;28;20037;-68
2022/11/23 05:38:28;;;;;;;8.27;2.50;;;3.80;99.90;;;;;;5022182;28;20038;-68
2022/11/23 05:40:54;;;;;;;8.13;2.20;;;3.90;99.90;;;;;;5020387;28;20052;-67
2022/11/23 05:43:19;;;;;;;4.40;1.92;;;4.00;99.90;;;;;;5020563;28;20042;-68
2022/11/23 05:45:45;;;;;;;5.22;2.63;;;4.00;99.90;;;;;;5020809;28;20045;-68
2022/11/23 05:48:11;;;;;;;4.90;2.60;;;4.10;99.90;;;;;;5020585;28;20406;-68
2022/11/23 05:50:37;;;;;;;10.50;2.75;;;4.10;99.90;;;;;;5020628;28;20045;-67
2022/11/23 05:53:02;;;;;;;7.18;2.80;;;4.20;99.90;;;;;;5022666;28;20663;-68
2022/11/23 05:55:28;;;;;;;7.72;2.63;;;4.10;99.90;;;;;;5037468;28;20603;-68
2022/11/23 05:57:54;;;;;;;5.38;2.72;;;4.10;99.90;;;;;;5037815;28;20458;-67
2022/11/23 06:00:20;;;;;;;4.85;2.10;;;4.10;99.90;;;;;;5040341;28;20087;-67
2022/11/23 06:02:46;;;;;;;7.78;2.35;;;4.20;99.90;;;;;;5040332;28;20076;-67
2022/11/23 06:05:12;;;;;;;3.20;1.83;;;4.10;99.90;;;;;;5040332;28;20069;-67
2022/11/23 06:07:38;;;;;;;5.47;2.90;;;4.20;99.90;;;;;;5040194;28;20048;-67
2022/11/23 06:10:06;;;;;;;4.00;2.50;;;4.20;99.90;;;;;;5040161;28;20045;-67
2022/11/23 06:12:31;;;;;;;7.53;2.55;;;4.20;99.90;;;;;;5039872;28;20044;-68
2022/11/23 06:14:57;;;;;;;6.05;2.40;;;4.30;99.90;;;;;;5040067;28;20042;-67
2022/11/23 06:17:23;;;;;;;6.82;2.40;;;4.40;99.90;;;;;;5039590;28;20081;-66
2022/11/23 06:19:49;;;;;;;4.90;2.10;;;4.40;99.90;;;;;;5040081;28;20404;-67
2022/11/23 06:22:16;;;;;;;5.35;2.50;;;4.40;99.90;;;;;;5040198;28;20427;-66
2022/11/23 06:24:42;;;;;;;9.25;5.03;;;4.30;99.90;;;;;;5039792;28;20112;-67
2022/11/23 06:27:08;;;;;;;15.75;7.05;;;4.30;99.90;;;;;;5039378;28;20079;-67
2022/11/23 06:29:36;;;;;;;13.30;5.85;;;4.30;99.90;;;;;;5038782;28;20547;-68
2022/11/23 06:32:04;;;;;;;9.25;5.72;;;4.20;99.90;;;;;;5037724;28;20037;-67
2022/11/23 06:34:30;;;;;;;11.93;5.70;;;4.20;99.90;;;;;;5038235;28;20119;-66
2022/11/23 06:37:05;;;;;;;21.73;9.70;;;4.10;99.90;;;;;;5037296;28;20124;-67
2022/11/23 06:39:36;;;;;;;45.33;23.45;;;4.00;99.90;;;;;;5035257;28;20041;-66
2022/11/23 06:42:03;;;;;;;15.30;7.45;;;4.00;99.90;;;;;;5031435;28;20061;-67
2022/11/23 06:44:29;;;;;;;10.10;5.03;;;4.00;99.90;;;;;;5038086;28;20076;-67
2022/11/23 06:46:55;;;;;;;41.08;21.17;;;4.00;99.90;;;;;;5036371;28;20038;-66
2022/11/23 06:49:20;;;;;;;44.42;22.55;;;4.10;99.90;;;;;;5035791;28;20057;-67
2022/11/23 06:51:46;;;;;;;18.08;9.05;;;3.90;99.90;;;;;;5036670;28;20061;-67
2022/11/23 06:54:13;;;;;;;15.23;8.18;;;4.00;99.90;;;;;;5036349;28;20073;-67
2022/11/23 06:56:39;;;;;;;16.30;9.55;;;4.00;99.90;;;;;;5036335;28;20179;-67
2022/11/23 06:59:05;;;;;;;12.43;6.55;;;4.00;99.90;;;;;;5036313;28;20112;-67
2022/11/23 07:01:31;;;;;;;15.30;7.78;;;4.00;99.90;;;;;;5036624;28;20033;-67
2022/11/23 07:03:57;;;;;;;13.38;6.70;;;4.00;99.90;;;;;;5036357;28;20488;-67
2022/11/23 07:06:23;;;;;;;22.58;10.07;;;3.90;99.90;;;;;;5033001;28;20171;-67
2022/11/23 07:08:48;;;;;;;17.60;8.10;;;3.80;99.90;;;;;;5035372;28;20049;-67
2022/11/23 07:11:14;;;;;;;20.75;9.23;;;3.80;99.90;;;;;;5035920;28;20538;-67
2022/11/23 07:13:40;;;;;;;13.30;7.47;;;3.90;99.90;;;;;;5035709;28;20041;-67
2022/11/23 07:16:06;;;;;;;17.40;7.60;;;3.90;99.90;;;;;;5036019;28;20033;-67
2022/11/23 07:18:32;;;;;;;14.25;6.22;;;3.90;99.90;;;;;;5036162;28;20041;-67
2022/11/23 07:20:58;;;;;;;14.77;7.00;;;3.90;99.90;;;;;;5035797;28;20167;-67
2022/11/23 07:23:24;;;;;;;9.52;5.22;;;3.90;99.90;;;;;;5035969;28;20034;-67
2022/11/23 07:25:50;;;;;;;13.85;7.25;;;3.70;99.90;;;;;;5035827;28;20056;-67
2022/11/23 07:28:16;;;;;;;23.88;10.45;;;3.70;99.90;;;;;;5036078;28;20476;-68
2022/11/23 07:30:41;;;;;;;28.63;12.27;;;3.80;99.90;;;;;;5036082;28;20045;-68
2022/11/23 07:33:10;;;;;;;25.90;11.20;;;3.80;99.90;;;;;;5035906;28;20033;-67
2022/11/23 07:35:37;;;;;;;20.50;9.65;;;3.70;99.90;;;;;;5035938;28;20049;-67
2022/11/23 07:38:06;;;;;;;16.40;7.57;;;3.80;99.90;;;;;;5035864;28;20116;-67
2022/11/23 07:40:33;;;;;;;13.10;5.80;;;3.70;99.90;;;;;;5035944;28;20516;-67
2022/11/23 07:43:01;;;;;;;14.45;5.50;;;3.80;99.90;;;;;;5036124;28;20421;-67
2022/11/23 07:45:30;;;;;;;14.52;7.32;;;4.00;99.90;;;;;;5035850;28;20123;-67
2022/11/23 07:48:04;;;;;;;17.02;8.73;;;4.10;99.90;;;;;;5035810;28;20485;-67
2022/11/23 07:50:31;;;;;;;13.77;7.13;;;4.00;99.90;;;;;;5032812;28;20033;-67
2022/11/23 07:52:57;;;;;;;14.75;8.20;;;4.00;99.90;;;;;;5015839;28;20045;-67
2022/11/23 07:55:23;;;;;;;16.73;9.52;;;4.00;99.90;;;;;;5015772;28;20038;-67
2022/11/23 07:57:53;;;;;;;21.08;11.38;;;4.10;99.90;;;;;;5015506;28;20151;-67
2022/11/23 08:00:20;;;;;;;32.22;12.13;;;4.20;99.90;;;;;;5015748;28;20100;-67
2022/11/23 08:02:45;;;;;;;21.27;9.93;;;4.20;99.90;;;;;;5015431;28;20088;-67
2022/11/23 08:05:12;;;;;;;16.42;7.43;;;4.20;99.90;;;;;;5015379;28;20053;-68
2022/11/23 08:07:38;;;;;;;16.00;6.30;;;4.10;99.90;;;;;;5015487;28;20033;-67
2022/11/23 08:10:04;;;;;;;20.92;6.82;;;4.00;99.90;;;;;;5015343;28;20057;-67
2022/11/23 08:12:30;;;;;;;19.80;6.95;;;3.90;99.90;;;;;;5015622;28;20037;-67
2022/11/23 08:14:55;;;;;;;16.63;6.35;;;4.00;99.90;;;;;;5015521;28;20034;-67
2022/11/23 08:17:21;;;;;;;17.85;8.98;;;4.00;99.90;;;;;;5015334;28;20481;-67
2022/11/23 08:19:47;;;;;;;21.00;7.90;;;4.10;99.90;;;;;;5015208;28;20046;-67
2022/11/23 08:22:13;;;;;;;16.13;6.07;;;4.10;99.90;;;;;;5015266;28;20041;-67
2022/11/23 08:24:39;;;;;;;15.77;6.63;;;4.20;99.90;;;;;;5015364;28;20042;-67
2022/11/23 08:27:04;;;;;;;20.67;6.35;;;4.20;99.90;;;;;;5015280;28;20115;-67
2022/11/23 08:29:30;;;;;;;17.45;6.53;;;4.20;99.90;;;;;;5015145;28;20406;-67
2022/11/23 08:31:56;;;;;;;19.05;7.35;;;4.20;99.90;;;;;;5015180;28;20034;-67
2022/11/23 08:34:21;;;;;;;14.63;5.95;;;4.30;99.90;;;;;;5014991;28;20127;-67
2022/11/23 08:36:47;;;;;;;12.32;6.32;;;4.30;99.90;;;;;;5015370;28;20025;-67
2022/11/23 08:39:14;;;;;;;17.05;7.03;;;4.40;99.90;;;;;;5015363;28;20389;-67
2022/11/23 08:41:40;;;;;;;15.57;6.05;;;4.70;99.90;;;;;;5014928;28;20030;-67
2022/11/23 08:44:08;;;;;;;13.48;6.45;;;4.60;99.90;;;;;;5015062;28;20049;-67
2022/11/23 08:46:34;;;;;;;17.25;6.63;;;4.70;99.90;;;;;;5014863;28;20588;-67
2022/11/23 08:49:00;;;;;;;14.13;6.38;;;4.80;99.90;;;;;;5014808;28;20136;-67
2022/11/23 08:51:26;;;;;;;15.88;7.40;;;4.80;99.90;;;;;;5015071;28;20042;-67
2022/11/23 08:53:52;;;;;;;26.33;10.20;;;4.90;99.90;;;;;;5014811;28;20034;-67
2022/11/23 08:56:17;;;;;;;16.90;7.45;;;5.00;99.90;;;;;;5014937;28;20045;-67
2022/11/23 08:58:44;;;;;;;15.30;7.18;;;4.90;99.90;;;;;;5014761;28;20120;-67
2022/11/23 09:01:14;;;;;;;20.45;8.23;;;4.90;99.90;;;;;;5014753;28;20129;-68
2022/11/23 09:03:41;;;;;;;18.38;7.32;;;5.00;99.90;;;;;;5014458;28;20045;-67
2022/11/23 09:06:07;;;;;;;39.17;14.50;;;5.10;99.90;;;;;;5014388;28;20405;-67
2022/11/23 09:08:34;;;;;;;59.28;20.80;;;5.10;99.90;;;;;;5014330;28;20045;-68
2022/11/23 09:11:01;;;;;;;29.63;11.90;;;5.10;99.90;;;;;;5014056;28;20079;-67
2022/11/23 09:13:27;;;;;;;19.02;8.23;;;5.20;99.90;;;;;;5014682;28;20177;-67
2022/11/23 09:15:59;;;;;;;20.95;7.82;;;5.30;99.90;;;;;;5014536;28;20042;-67
2022/11/23 09:18:26;;;;;;;13.93;6.65;;;5.30;99.90;;;;;;5014573;28;20088;-67
2022/11/23 09:20:52;;;;;;;17.25;7.65;;;5.40;99.90;;;;;;5014473;28;20037;-67
2022/11/23 09:23:18;;;;;;;17.45;6.68;;;5.40;99.90;;;;;;5014398;28;20507;-68
2022/11/23 09:25:47;;;;;;;18.35;7.13;;;5.40;99.90;;;;;;5014303;28;20041;-67
2022/11/23 09:28:13;;;;;;;15.70;7.53;;;5.20;99.90;;;;;;5014210;28;20045;-67
2022/11/23 09:30:42;;;;;;;15.38;7.53;;;5.30;99.90;;;;;;5014087;28;20045;-67
2022/11/23 09:33:08;;;;;;;16.60;8.00;;;5.30;99.90;;;;;;5014180;28;20040;-67
2022/11/23 09:35:34;;;;;;;13.50;7.30;;;5.30;99.90;;;;;;5014245;28;20022;-67
2022/11/23 09:38:00;;;;;;;13.00;5.90;;;5.10;99.90;;;;;;5014444;28;20128;-67
2022/11/23 09:40:39;;;;;;;12.85;6.18;;;5.10;99.90;;;;;;5014194;28;20096;-67
2022/11/23 09:43:27;;;;;;;11.82;5.95;;;5.10;99.90;;;;;;5013942;28;20049;-67
2022/11/23 09:45:55;;;;;;;10.73;6.18;;;5.10;99.90;;;;;;5014250;28;20456;-67
2022/11/23 09:48:26;;;;;;;12.73;6.75;;;5.20;99.90;;;;;;5014019;28;20125;-67
2022/11/23 09:51:03;;;;;;;12.43;5.88;;;5.30;99.90;;;;;;5014240;28;20053;-67
2022/11/23 09:53:53;;;;;;;16.40;7.07;;;5.60;99.90;;;;;;5014047;28;20113;-67
2022/11/23 09:56:36;;;;;;;38.87;16.50;;;5.80;99.90;;;;;;5013972;28;20434;-67
2022/11/23 09:59:12;;;;;;;51.38;20.08;;;5.90;99.90;;;;;;5027845;28;20563;-67
2022/11/23 10:01:39;;;;;;;36.85;16.20;;;5.80;99.90;;;;;;5020449;28;20041;-68
2022/11/23 10:04:10;;;;;;;35.70;17.02;;;5.80;99.90;;;;;;5013830;28;20042;-67
2022/11/23 10:06:41;;;;;;;24.67;8.15;;;5.80;99.90;;;;;;5013965;28;20049;-67
2022/11/23 10:09:29;;;;;;;16.25;8.35;;;5.80;99.90;;;;;;5013781;28;20042;-68
2022/11/23 10:12:40;;;;;;;17.42;9.27;;;5.80;99.90;;;;;;5014009;28;20516;-68
2022/11/23 10:15:23;;;;;;;21.88;8.77;;;5.70;99.90;;;;;;5011676;28;20153;-67
2022/11/23 10:18:19;;;;;;;16.38;8.90;;;5.70;99.90;;;;;;5013936;28;20038;-67
2022/11/23 10:20:55;;;;;;;17.80;9.75;;;5.70;99.90;;;;;;5014385;28;20050;-67
2022/11/23 10:23:39;;;;;;;21.70;8.50;;;5.90;99.90;;;;;;5019787;28;20498;-67
2022/11/23 10:26:13;;;;;;;16.17;8.85;;;6.00;99.90;;;;;;5017508;28;20054;-67
2022/11/23 10:28:39;;;;;;;20.92;8.82;;;6.20;99.90;;;;;;5017284;28;20141;-67
2022/11/23 10:31:13;;;;;;;15.40;8.40;;;6.40;99.90;;;;;;5017231;28;20065;-68
2022/11/23 10:33:57;;;;;;;13.48;7.47;;;6.40;99.90;;;;;;5017188;28;20072;-67
2022/11/23 10:36:23;;;;;;;16.02;7.80;;;6.20;99.90;;;;;;5017140;28;20029;-67
2022/11/23 10:38:57;;;;;;;13.65;7.20;;;6.20;99.90;;;;;;5017243;28;20103;-67
2022/11/23 10:41:23;;;;;;;16.23;7.78;;;6.20;99.90;;;;;;5017082;28;20447;-67
2022/11/23 10:43:54;;;;;;;16.58;7.30;;;6.20;99.90;;;;;;5017043;28;20041;-67
2022/11/23 10:46:36;;;;;;;15.68;8.40;;;6.30;99.90;;;;;;5017232;28;20124;-67
2022/11/23 10:49:18;;;;;;;11.45;7.50;;;6.40;99.90;;;;;;5017291;28;20561;-67
2022/11/23 10:51:51;;;;;;;17.35;8.30;;;6.70;99.90;;;;;;5016767;28;20048;-67
2022/11/23 10:54:22;;;;;;;14.10;7.18;;;7.00;99.90;;;;;;5016984;28;20049;-67
2022/11/23 10:56:50;;;;;;;15.00;7.50;;;6.90;99.90;;;;;;5017107;28;20045;-67
2022/11/23 10:59:32;;;;;;;12.35;7.70;;;6.90;99.90;;;;;;5016972;28;20046;-67
2022/11/23 11:02:12;;;;;;;14.00;7.13;;;6.70;99.90;;;;;;5016790;28;20042;-68
2022/11/23 11:04:38;;;;;;;12.80;7.93;;;6.70;99.90;;;;;;5016951;28;20060;-67
2022/11/23 11:07:18;;;;;;;15.75;8.10;;;6.80;99.90;;;;;;5016831;28;20620;-67
2022/11/23 11:09:55;;;;;;;14.73;7.20;;;6.70;99.90;;;;;;5016600;28;20054;-67
2022/11/23 11:12:22;;;;;;;14.48;7.45;;;6.60;99.90;;;;;;5017091;28;20121;-67
2022/11/23 11:15:03;;;;;;;19.50;7.82;;;6.50;99.90;;;;;;5016654;28;20042;-68
2022/11/23 11:17:34;;;;;;;15.18;8.93;;;6.60;99.90;;;;;;5016551;28;20034;-67
2022/11/23 11:20:23;;;;;;;14.88;8.18;;;6.70;99.90;;;;;;5016657;28;20469;-67
2022/11/23 11:22:49;;;;;;;16.20;7.90;;;6.60;99.90;;;;;;5016345;28;20044;-68
2022/11/23 11:25:36;;;;;;;15.38;7.63;;;6.50;99.90;;;;;;5016395;28;20037;-67
2022/11/23 11:28:14;;;;;;;20.83;9.77;;;6.50;99.90;;;;;;5016366;28;20100;-67
2022/11/23 11:31:12;;;;;;;20.30;8.95;;;6.40;99.90;;;;;;5016336;28;20075;-68
2022/11/23 11:34:05;;;;;;;17.40;8.48;;;6.40;99.90;;;;;;5011643;28;20045;-68
2022/11/23 11:36:37;;;;;;;12.93;7.60;;;6.40;99.90;;;;;;5016389;28;20092;-67
2022/11/23 11:39:13;;;;;;;17.35;8.07;;;6.40;99.90;;;;;;5016202;28;20077;-68
2022/11/23 11:41:42;;;;;;;17.02;8.38;;;6.40;99.90;;;;;;5015709;28;20048;-68
2022/11/23 11:44:21;;;;;;;15.20;7.38;;;6.50;99.90;;;;;;5016143;28;20409;-67
2022/11/23 11:47:03;;;;;;;15.93;7.90;;;6.60;99.90;;;;;;5015027;28;20045;-67
2022/11/23 11:49:38;;;;;;;17.50;8.07;;;6.70;99.90;;;;;;5014899;28;20049;-67
2022/11/23 11:52:12;;;;;;;17.38;7.65;;;6.60;99.90;;;;;;5015711;28;20570;-67
2022/11/23 11:55:05;;;;;;;12.55;7.13;;;6.70;99.90;;;;;;5015960;28;20050;-67
2022/11/23 11:57:46;;;;;;;15.65;8.18;;;6.90;99.90;;;;;;5015786;28;20355;-67
2022/11/23 12:00:19;;;;;;;15.73;7.75;;;7.00;99.90;;;;;;5015990;28;20088;-67
2022/11/23 12:03:24;;;;;;;13.25;7.30;;;7.10;99.90;;;;;;5014322;28;20600;-67
2022/11/23 12:05:57;;;;;;;18.23;10.13;;;7.20;99.90;;;;;;5015559;28;20508;-67
2022/11/23 12:08:25;;;;;;;26.85;12.30;;;7.30;99.90;;;;;;5015241;28;20042;-67
2022/11/23 12:11:00;;;;;;;20.60;9.88;;;7.30;99.90;;;;;;5015348;28;20524;-67
2022/11/23 12:13:35;;;;;;;18.33;9.35;;;7.30;99.90;;;;;;5015519;28;20073;-67
2022/11/23 12:16:20;;;;;;;20.80;9.80;;;7.50;99.90;;;;;;5015549;28;20397;-67
2022/11/23 12:18:57;;;;;;;23.58;11.52;;;7.70;99.90;;;;;;5015419;28;20207;-67
2022/11/23 12:21:41;;;;;;;24.33;11.48;;;7.90;99.90;;;;;;5015095;28;20160;-67
2022/11/23 12:24:14;;;;;;;17.45;8.23;;;8.00;99.90;;;;;;5018260;28;20208;-67
2022/11/23 12:27:00;;;;;;;18.70;9.93;;;7.80;99.90;;;;;;5026427;28;20038;-67
2022/11/23 12:29:42;;;;;;;13.93;8.55;;;7.70;99.90;;;;;;5024326;28;20561;-68
2022/11/23 12:32:13;;;;;;;15.48;7.22;;;7.70;99.90;;;;;;5026166;28;20041;-67
2022/11/23 12:35:18;;;;;;;19.75;9.70;;;7.70;99.90;;;;;;5022067;28;20092;-67
2022/11/23 12:38:09;;;;;;;14.77;7.57;;;7.50;99.90;;;;;;5004743;28;20044;-67
2022/11/23 12:41:08;;;;;;;12.10;6.75;;;7.50;99.90;;;;;;5024878;28;20042;-67
2022/11/23 12:43:45;;;;;;;17.48;8.00;;;7.40;99.90;;;;;;5020911;28;20049;-68
2022/11/23 12:46:42;;;;;;;18.27;8.40;;;7.30;99.90;;;;;;5012494;28;20049;-67
2022/11/23 12:49:17;;;;;;;14.43;7.18;;;7.30;99.90;;;;;;5021860;28;20483;-67
2022/11/23 12:52:17;;;;;;;17.13;7.93;;;7.40;99.90;;;;;;5021731;28;20519;-68
2022/11/23 12:55:16;;;;;;;24.80;11.77;;;7.40;99.90;;;;;;5023857;28;20053;-68
2022/11/23 12:58:17;;;;;;;16.02;8.35;;;7.50;99.90;;;;;;5021901;28;20385;-67
2022/11/23 13:00:54;;;;;;;13.77;6.90;;;7.50;99.90;;;;;;5022547;28;20437;-68
2022/11/23 13:03:45;;;;;;;12.65;6.97;;;7.50;99.90;;;;;;5025773;28;20568;-67
2022/11/23 13:06:37;;;;;;;19.65;9.57;;;7.60;99.90;;;;;;5024816;28;20497;-67